sensor_id;sensor_type;location;lat;lon;timestamp;pressure;altitude;pressure_sealevel;temperature;humidity
13420;BME280;6781;58.440;15.470;2023-12-14T00:02:08;102383.09;;;-3.94;100.00
13420;BME280;6781;58.440;15.470;2023-12-14T00:04:35;102363.50;;;-4.12;100.00
13420;BME280;6781;58.440;15.470;2023-12-14T00:07:03;102349.00;;;-4.27;100.00
13420;BME280;6781;58.440;15.470;2023-12-14T00:09:30;102374.59;;;-3.99;100.00
13420;BME280;6781;58.440;15.470;2023-12-14T00:11:56;102371.19;;;-4.01;100.00
13420;BME280;6781;58.440;15.470;2023-12-14T00:14:23;102365.25;;;-4.05;100.00
13420;BME280;6781;58.440;15.470;2023-12-14T00:16:50;102368.75;;;-3.94;100.00
13420;BME280;6781;58.440;15.470;2023-12-14T00:19:18;102351.69;;;-4.10;100.00
13420;BME280;6781;58.440;15.470;2023-12-14T00:21:44;102361.88;;;-4.04;100.00
13420;BME280;6781;58.440;15.470;2023-12-14T00:24:13;102338.94;;;-4.17;100.00
13420;BME280;6781;58.440;15.470;2023-12-14T00:26:39;102344.84;;;-4.20;100.00
13420;BME280;6781;58.440;15.470;2023-12-14T00:29:06;102330.41;;;-4.29;100.00
13420;BME280;6781;58.440;15.470;2023-12-14T00:31:33;102338.00;;;-4.27;100.00
13420;BME280;6781;58.440;15.470;2023-12-14T00:33:59;102346.50;;;-4.22;100.00
13420;BME280;6781;58.440;15.470;2023-12-14T00:36:28;102363.47;;;-4.15;100.00
13420;BME280;6781;58.440;15.470;2023-12-14T00:38:55;102376.22;;;-4.04;100.00
13420;BME280;6781;58.440;15.470;2023-12-14T00:41:23;102363.56;;;-4.06;100.00
13420;BME280;6781;58.440;15.470;2023-12-14T00:43:50;102363.59;;;-4.03;100.00
13420;BME280;6781;58.440;15.470;2023-12-14T00:46:17;102347.41;;;-4.17;100.00
13420;BME280;6781;58.440;15.470;2023-12-14T00:48:43;102335.47;;;-4.27;100.00
13420;BME280;6781;58.440;15.470;2023-12-14T00:51:10;102328.63;;;-4.36;100.00
13420;BME280;6781;58.440;15.470;2023-12-14T00:53:37;102330.28;;;-4.38;100.00
13420;BME280;6781;58.440;15.470;2023-12-14T00:56:04;102343.06;;;-4.27;100.00
13420;BME280;6781;58.440;15.470;2023-12-14T00:58:32;102360.97;;;-4.10;100.00
13420;BME280;6781;58.440;15.470;2023-12-14T01:00:59;102367.81;;;-4.02;100.00
13420;BME280;6781;58.440;15.470;2023-12-14T01:03:25;102377.16;;;-3.98;100.00
13420;BME280;6781;58.440;15.470;2023-12-14T01:05:52;102385.66;;;-3.92;100.00
13420;BME280;6781;58.440;15.470;2023-12-14T01:08:19;102401.81;;;-3.78;100.00
13420;BME280;6781;58.440;15.470;2023-12-14T01:10:46;102407.84;;;-3.67;100.00
13420;BME280;6781;58.440;15.470;2023-12-14T01:13:12;102412.91;;;-3.67;100.00
13420;BME280;6781;58.440;15.470;2023-12-14T01:15:41;102357.59;;;-4.11;100.00
13420;BME280;6781;58.440;15.470;2023-12-14T01:18:08;102341.47;;;-4.19;100.00
13420;BME280;6781;58.440;15.470;2023-12-14T01:20:34;102337.22;;;-4.21;100.00
13420;BME280;6781;58.440;15.470;2023-12-14T01:23:01;102329.56;;;-4.28;100.00
13420;BME280;6781;58.440;15.470;2023-12-14T01:25:28;102317.59;;;-4.42;100.00
13420;BME280;6781;58.440;15.470;2023-12-14T01:27:55;102306.63;;;-4.41;100.00
13420;BME280;6781;58.440;15.470;2023-12-14T01:30:22;102307.44;;;-4.45;100.00
13420;BME280;6781;58.440;15.470;2023-12-14T01:32:50;102313.34;;;-4.45;100.00
13420;BME280;6781;58.440;15.470;2023-12-14T01:35:17;102326.16;;;-4.31;100.00
13420;BME280;6781;58.440;15.470;2023-12-14T01:37:44;102313.31;;;-4.48;100.00
13420;BME280;6781;58.440;15.470;2023-12-14T01:40:11;102322.66;;;-4.42;100.00
13420;BME280;6781;58.440;15.470;2023-12-14T01:42:38;102314.22;;;-4.41;100.00
13420;BME280;6781;58.440;15.470;2023-12-14T01:45:05;102303.25;;;-4.42;100.00
13420;BME280;6781;58.440;15.470;2023-12-14T01:47:32;102331.34;;;-4.19;100.00
13420;BME280;6781;58.440;15.470;2023-12-14T01:50:00;102337.25;;;-4.17;100.00
13420;BME280;6781;58.440;15.470;2023-12-14T01:52:27;102359.44;;;-3.95;100.00
13420;BME280;6781;58.440;15.470;2023-12-14T01:54:54;102331.41;;;-4.13;100.00
13420;BME280;6781;58.440;15.470;2023-12-14T01:57:24;102316.91;;;-4.28;100.00
13420;BME280;6781;58.440;15.470;2023-12-14T01:59:50;102312.72;;;-4.24;100.00
13420;BME280;6781;58.440;15.470;2023-12-14T02:02:17;102325.56;;;-4.06;100.00
13420;BME280;6781;58.440;15.470;2023-12-14T02:04:44;102337.53;;;-3.89;100.00
13420;BME280;6781;58.440;15.470;2023-12-14T02:07:13;102350.28;;;-3.82;100.00
13420;BME280;6781;58.440;15.470;2023-12-14T02:09:39;102366.41;;;-3.72;100.00
13420;BME280;6781;58.440;15.470;2023-12-14T02:12:06;102357.06;;;-3.79;100.00
13420;BME280;6781;58.440;15.470;2023-12-14T02:14:33;102351.97;;;-3.79;100.00
13420;BME280;6781;58.440;15.470;2023-12-14T02:17:00;102365.59;;;-3.68;100.00
13420;BME280;6781;58.440;15.470;2023-12-14T02:19:26;102352.00;;;-3.76;100.00
13420;BME280;6781;58.440;15.470;2023-12-14T02:21:53;102364.78;;;-3.63;100.00
13420;BME280;6781;58.440;15.470;2023-12-14T02:24:21;102335.03;;;-3.86;100.00
13420;BME280;6781;58.440;15.470;2023-12-14T02:26:48;102356.25;;;-3.74;100.00
13420;BME280;6781;58.440;15.470;2023-12-14T02:29:15;102352.06;;;-3.69;100.00
13420;BME280;6781;58.440;15.470;2023-12-14T02:31:41;102358.91;;;-3.60;100.00
13420;BME280;6781;58.440;15.470;2023-12-14T02:34:08;102368.19;;;-3.61;100.00
13420;BME280;6781;58.440;15.470;2023-12-14T02:36:35;102336.75;;;-3.82;100.00
13420;BME280;6781;58.440;15.470;2023-12-14T02:39:01;102338.53;;;-3.72;100.00
13420;BME280;6781;58.440;15.470;2023-12-14T02:41:30;102316.44;;;-3.88;100.00
13420;BME280;6781;58.440;15.470;2023-12-14T02:43:56;102327.59;;;-3.67;100.00
13420;BME280;6781;58.440;15.470;2023-12-14T02:46:23;102334.44;;;-3.56;100.00
13420;BME280;6781;58.440;15.470;2023-12-14T02:48:50;102342.06;;;-3.52;100.00
13420;BME280;6781;58.440;15.470;2023-12-14T02:51:17;102342.03;;;-3.56;100.00
13420;BME280;6781;58.440;15.470;2023-12-14T02:53:43;102340.41;;;-3.47;100.00
13420;BME280;6781;58.440;15.470;2023-12-14T02:56:10;102348.88;;;-3.43;100.00
13420;BME280;6781;58.440;15.470;2023-12-14T02:58:38;102346.31;;;-3.46;100.00
13420;BME280;6781;58.440;15.470;2023-12-14T03:01:05;102342.94;;;-3.45;100.00
13420;BME280;6781;58.440;15.470;2023-12-14T03:06:07;102360.75;;;-3.38;100.00
13420;BME280;6781;58.440;15.470;2023-12-14T03:08:34;102364.13;;;-3.36;100.00
13420;BME280;6781;58.440;15.470;2023-12-14T03:11:01;102368.34;;;-3.36;100.00
13420;BME280;6781;58.440;15.470;2023-12-14T03:13:28;102359.91;;;-3.37;100.00
13420;BME280;6781;58.440;15.470;2023-12-14T03:15:56;102355.66;;;-3.38;100.00
13420;BME280;6781;58.440;15.470;2023-12-14T03:18:23;102373.47;;;-3.32;100.00
13420;BME280;6781;58.440;15.470;2023-12-14T03:20:49;102342.06;;;-3.52;100.00
13420;BME280;6781;58.440;15.470;2023-12-14T03:23:16;102344.59;;;-3.55;100.00
13420;BME280;6781;58.440;15.470;2023-12-14T03:25:43;102346.28;;;-3.52;100.00
13420;BME280;6781;58.440;15.470;2023-12-14T03:28:10;102351.41;;;-3.40;100.00
13420;BME280;6781;58.440;15.470;2023-12-14T03:30:36;102359.88;;;-3.38;100.00
13420;BME280;6781;58.440;15.470;2023-12-14T03:33:04;102365.84;;;-3.32;100.00
13420;BME280;6781;58.440;15.470;2023-12-14T03:35:33;102369.22;;;-3.31;100.00
13420;BME280;6781;58.440;15.470;2023-12-14T03:37:59;102367.56;;;-3.31;100.00
13420;BME280;6781;58.440;15.470;2023-12-14T03:40:26;102364.19;;;-3.27;100.00
13420;BME280;6781;58.440;15.470;2023-12-14T03:42:53;102360.75;;;-3.35;100.00
13420;BME280;6781;58.440;15.470;2023-12-14T03:45:20;102363.34;;;-3.27;100.00
13420;BME280;6781;58.440;15.470;2023-12-14T03:47:46;102348.91;;;-3.36;100.00
13420;BME280;6781;58.440;15.470;2023-12-14T03:50:15;102350.63;;;-3.32;100.00
13420;BME280;6781;58.440;15.470;2023-12-14T03:52:41;102345.56;;;-3.32;100.00
13420;BME280;6781;58.440;15.470;2023-12-14T03:55:08;102348.97;;;-3.30;100.00
13420;BME280;6781;58.440;15.470;2023-12-14T03:57:35;102349.81;;;-3.29;100.00
13420;BME280;6781;58.440;15.470;2023-12-14T04:00:02;102345.59;;;-3.29;100.00
13420;BME280;6781;58.440;15.470;2023-12-14T04:02:29;102338.84;;;-3.27;100.00
13420;BME280;6781;58.440;15.470;2023-12-14T04:04:56;102331.19;;;-3.34;100.00
13420;BME280;6781;58.440;15.470;2023-12-14T04:07:24;102333.75;;;-3.30;100.00
13420;BME280;6781;58.440;15.470;2023-12-14T04:09:51;102335.47;;;-3.25;100.00
13420;BME280;6781;58.440;15.470;2023-12-14T04:12:18;102317.63;;;-3.39;100.00
13420;BME280;6781;58.440;15.470;2023-12-14T04:14:45;102321.06;;;-3.28;100.00
13420;BME280;6781;58.440;15.470;2023-12-14T04:17:11;102318.56;;;-3.23;100.00
13420;BME280;6781;58.440;15.470;2023-12-14T04:19:38;102312.63;;;-3.24;100.00
13420;BME280;6781;58.440;15.470;2023-12-14T04:22:05;102314.31;;;-3.28;100.00
13420;BME280;6781;58.440;15.470;2023-12-14T04:24:33;102314.34;;;-3.21;100.00
13420;BME280;6781;58.440;15.470;2023-12-14T04:27:00;102311.81;;;-3.21;100.00
13420;BME280;6781;58.440;15.470;2023-12-14T04:29:27;102299.06;;;-3.32;100.00
13420;BME280;6781;58.440;15.470;2023-12-14T04:31:54;102299.91;;;-3.35;100.00
13420;BME280;6781;58.440;15.470;2023-12-14T04:34:20;102304.16;;;-3.31;100.00
13420;BME280;6781;58.440;15.470;2023-12-14T04:36:47;102287.19;;;-3.38;100.00
13420;BME280;6781;58.440;15.470;2023-12-14T04:39:14;102248.13;;;-3.73;100.00
13420;BME280;6781;58.440;15.470;2023-12-14T04:41:43;102256.66;;;-3.59;100.00
13420;BME280;6781;58.440;15.470;2023-12-14T04:44:10;102267.72;;;-3.45;100.00
13420;BME280;6781;58.440;15.470;2023-12-14T04:46:37;102276.22;;;-3.34;100.00
13420;BME280;6781;58.440;15.470;2023-12-14T04:49:03;102279.59;;;-3.38;100.00
13420;BME280;6781;58.440;15.470;2023-12-14T04:51:30;102272.81;;;-3.39;100.00
13420;BME280;6781;58.440;15.470;2023-12-14T04:53:57;102278.75;;;-3.38;100.00
13420;BME280;6781;58.440;15.470;2023-12-14T04:56:24;102271.97;;;-3.41;100.00
13420;BME280;6781;58.440;15.470;2023-12-14T04:58:52;102235.47;;;-3.73;100.00
13420;BME280;6781;58.440;15.470;2023-12-14T05:01:19;102244.06;;;-3.50;100.00
13420;BME280;6781;58.440;15.470;2023-12-14T05:03:46;102259.31;;;-3.38;100.00
13420;BME280;6781;58.440;15.470;2023-12-14T05:06:12;102250.81;;;-3.43;100.00
13420;BME280;6781;58.440;15.470;2023-12-14T05:08:39;102246.59;;;-3.42;100.00
13420;BME280;6781;58.440;15.470;2023-12-14T05:11:06;102270.31;;;-3.33;100.00
13420;BME280;6781;58.440;15.470;2023-12-14T05:13:33;102259.31;;;-3.38;100.00
13420;BME280;6781;58.440;15.470;2023-12-14T05:16:01;102271.16;;;-3.37;100.00
13420;BME280;6781;58.440;15.470;2023-12-14T05:18:28;102278.69;;;-3.44;100.00
13420;BME280;6781;58.440;15.470;2023-12-14T05:20:55;102285.53;;;-3.36;100.00
13420;BME280;6781;58.440;15.470;2023-12-14T05:23:22;102281.28;;;-3.40;100.00
13420;BME280;6781;58.440;15.470;2023-12-14T05:25:49;102289.78;;;-3.32;100.00
13420;BME280;6781;58.440;15.470;2023-12-14T05:28:16;102279.56;;;-3.44;100.00
13420;BME280;6781;58.440;15.470;2023-12-14T05:30:43;102263.47;;;-3.52;100.00
13420;BME280;6781;58.440;15.470;2023-12-14T05:33:11;102256.72;;;-3.45;100.00
13420;BME280;6781;58.440;15.470;2023-12-14T05:35:38;102272.81;;;-3.39;100.00
13420;BME280;6781;58.440;15.470;2023-12-14T05:38:05;102274.47;;;-3.44;100.00
13420;BME280;6781;58.440;15.470;2023-12-14T05:40:31;102281.31;;;-3.34;100.00
13420;BME280;6781;58.440;15.470;2023-12-14T05:42:58;102288.06;;;-3.36;100.00
13420;BME280;6781;58.440;15.470;2023-12-14T05:45:25;102300.75;;;-3.33;100.00
13420;BME280;6781;58.440;15.470;2023-12-14T05:47:51;102243.78;;;-3.89;100.00
13420;BME280;6781;58.440;15.470;2023-12-14T05:50:20;102271.84;;;-3.64;100.00
13420;BME280;6781;58.440;15.470;2023-12-14T05:52:47;102293.09;;;-3.48;100.00
13420;BME280;6781;58.440;15.470;2023-12-14T05:55:14;102279.50;;;-3.57;100.00
13420;BME280;6781;58.440;15.470;2023-12-14T05:57:43;102280.28;;;-3.68;100.00
13420;BME280;6781;58.440;15.470;2023-12-14T06:00:10;102292.19;;;-3.56;100.00
13420;BME280;6781;58.440;15.470;2023-12-14T06:02:37;102298.13;;;-3.45;100.00
13420;BME280;6781;58.440;15.470;2023-12-14T06:05:05;102299.81;;;-3.50;100.00
13420;BME280;6781;58.440;15.470;2023-12-14T06:07:34;102272.63;;;-3.72;100.00
13420;BME280;6781;58.440;15.470;2023-12-14T06:10:01;102281.16;;;-3.59;100.00
13420;BME280;6781;58.440;15.470;2023-12-14T06:12:27;102291.38;;;-3.43;100.00
13420;BME280;6781;58.440;15.470;2023-12-14T06:14:54;102291.38;;;-3.49;100.00
13420;BME280;6781;58.440;15.470;2023-12-14T06:17:21;102302.38;;;-3.42;100.00
13420;BME280;6781;58.440;15.470;2023-12-14T06:19:48;102282.84;;;-3.60;100.00
13420;BME280;6781;58.440;15.470;2023-12-14T06:22:14;102286.28;;;-3.53;100.00
13420;BME280;6781;58.440;15.470;2023-12-14T06:24:43;102287.91;;;-3.63;100.00
13420;BME280;6781;58.440;15.470;2023-12-14T06:27:09;102313.34;;;-3.51;100.00
13420;BME280;6781;58.440;15.470;2023-12-14T06:29:36;102317.59;;;-3.48;100.00
13420;BME280;6781;58.440;15.470;2023-12-14T06:32:03;102328.63;;;-3.36;100.00
13420;BME280;6781;58.440;15.470;2023-12-14T06:34:30;102333.69;;;-3.37;100.00
13420;BME280;6781;58.440;15.470;2023-12-14T06:36:57;102308.16;;;-3.65;100.00
13420;BME280;6781;58.440;15.470;2023-12-14T06:39:25;102307.34;;;-3.64;100.00
13420;BME280;6781;58.440;15.470;2023-12-14T06:41:53;102322.66;;;-3.44;100.00
13420;BME280;6781;58.440;15.470;2023-12-14T06:44:20;102331.13;;;-3.42;100.00
13420;BME280;6781;58.440;15.470;2023-12-14T06:46:47;102327.72;;;-3.48;100.00
13420;BME280;6781;58.440;15.470;2023-12-14T06:49:13;102343.81;;;-3.39;100.00
13420;BME280;6781;58.440;15.470;2023-12-14T06:51:40;102320.06;;;-3.56;100.00
13420;BME280;6781;58.440;15.470;2023-12-14T06:54:07;102281.66;;;-4.05;100.00
13420;BME280;6781;58.440;15.470;2023-12-14T06:56:36;102316.56;;;-3.70;100.00
13420;BME280;6781;58.440;15.470;2023-12-14T06:59:04;102336.13;;;-3.55;100.00
13420;BME280;6781;58.440;15.470;2023-12-14T07:01:31;102338.63;;;-3.60;100.00
13420;BME280;6781;58.440;15.470;2023-12-14T07:03:57;102329.28;;;-3.66;100.00
13420;BME280;6781;58.440;15.470;2023-12-14T07:06:24;102319.16;;;-3.64;100.00
13420;BME280;6781;58.440;15.470;2023-12-14T07:08:51;102335.28;;;-3.56;100.00
13420;BME280;6781;58.440;15.470;2023-12-14T07:11:17;102309.72;;;-3.82;100.00
13420;BME280;6781;58.440;15.470;2023-12-14T07:13:44;102321.66;;;-3.67;100.00
13420;BME280;6781;58.440;15.470;2023-12-14T07:16:13;102333.59;;;-3.54;100.00
13420;BME280;6781;58.440;15.470;2023-12-14T07:18:41;102317.38;;;-3.76;100.00
13420;BME280;6781;58.440;15.470;2023-12-14T07:21:08;102312.31;;;-3.76;100.00
13420;BME280;6781;58.440;15.470;2023-12-14T07:23:35;102331.00;;;-3.63;100.00
13420;BME280;6781;58.440;15.470;2023-12-14T07:26:02;102325.97;;;-3.58;100.00
13420;BME280;6781;58.440;15.470;2023-12-14T07:28:29;102325.91;;;-3.66;100.00
13420;BME280;6781;58.440;15.470;2023-12-14T07:30:56;102308.09;;;-3.75;100.00
13420;BME280;6781;58.440;15.470;2023-12-14T07:33:24;102320.81;;;-3.68;100.00
13420;BME280;6781;58.440;15.470;2023-12-14T07:35:51;102319.22;;;-3.58;100.00
13420;BME280;6781;58.440;15.470;2023-12-14T07:38:17;102321.72;;;-3.61;100.00
13420;BME280;6781;58.440;15.470;2023-12-14T07:40:44;102280.06;;;-3.94;100.00
13420;BME280;6781;58.440;15.470;2023-12-14T07:43:12;102290.25;;;-3.87;100.00
13420;BME280;6781;58.440;15.470;2023-12-14T07:45:39;102311.53;;;-3.69;100.00
13420;BME280;6781;58.440;15.470;2023-12-14T07:48:05;102333.56;;;-3.60;100.00
13420;BME280;6781;58.440;15.470;2023-12-14T07:50:33;102353.91;;;-3.49;100.00
13420;BME280;6781;58.440;15.470;2023-12-14T07:53:00;102324.19;;;-3.70;100.00
13420;BME280;6781;58.440;15.470;2023-12-14T07:55:28;102317.41;;;-3.73;100.00
13420;BME280;6781;58.440;15.470;2023-12-14T07:57:55;102327.66;;;-3.57;100.00
13420;BME280;6781;58.440;15.470;2023-12-14T08:00:21;102337.00;;;-3.52;100.00
13420;BME280;6781;58.440;15.470;2023-12-14T08:02:48;102341.22;;;-3.52;100.00
13420;BME280;6781;58.440;15.470;2023-12-14T08:05:15;102348.84;;;-3.51;100.00
13420;BME280;6781;58.440;15.470;2023-12-14T08:07:43;102355.63;;;-3.47;100.00
13420;BME280;6781;58.440;15.470;2023-12-14T08:10:10;102370.88;;;-3.38;100.00
13420;BME280;6781;58.440;15.470;2023-12-14T08:12:36;102364.09;;;-3.39;100.00
13420;BME280;6781;58.440;15.470;2023-12-14T08:15:03;102350.53;;;-3.50;100.00
13420;BME280;6781;58.440;15.470;2023-12-14T08:17:30;102321.72;;;-3.61;100.00
13420;BME280;6781;58.440;15.470;2023-12-14T08:19:57;102336.19;;;-3.45;100.00
13420;BME280;6781;58.440;15.470;2023-12-14T08:22:24;102321.78;;;-3.52;100.00
13420;BME280;6781;58.440;15.470;2023-12-14T08:24:52;102303.09;;;-3.66;100.00
13420;BME280;6781;58.440;15.470;2023-12-14T08:27:18;102272.50;;;-3.90;100.00
13420;BME280;6781;58.440;15.470;2023-12-14T08:29:45;102258.84;;;-4.08;100.00
13420;BME280;6781;58.440;15.470;2023-12-14T08:32:12;102279.28;;;-3.88;100.00
13420;BME280;6781;58.440;15.470;2023-12-14T08:34:39;102279.28;;;-3.86;100.00
13420;BME280;6781;58.440;15.470;2023-12-14T08:37:06;102275.94;;;-3.82;100.00
13420;BME280;6781;58.440;15.470;2023-12-14T08:39:32;102281.06;;;-3.73;100.00
13420;BME280;6781;58.440;15.470;2023-12-14T08:42:01;102243.53;;;-4.20;100.00
13420;BME280;6781;58.440;15.470;2023-12-14T08:44:27;102251.22;;;-4.09;100.00
13420;BME280;6781;58.440;15.470;2023-12-14T08:46:54;102260.59;;;-4.01;100.00
13420;BME280;6781;58.440;15.470;2023-12-14T08:49:21;102274.22;;;-3.86;100.00
13420;BME280;6781;58.440;15.470;2023-12-14T08:51:48;102279.38;;;-3.76;100.00
13420;BME280;6781;58.440;15.470;2023-12-14T08:54:15;102295.50;;;-3.63;100.00
13420;BME280;6781;58.440;15.470;2023-12-14T08:56:42;102272.56;;;-3.81;100.00
13420;BME280;6781;58.440;15.470;2023-12-14T08:59:10;102250.50;;;-3.95;100.00
13420;BME280;6781;58.440;15.470;2023-12-14T09:01:37;102220.78;;;-4.15;100.00
13420;BME280;6781;58.440;15.470;2023-12-14T09:04:04;102204.53;;;-4.40;100.00
13420;BME280;6781;58.440;15.470;2023-12-14T09:06:31;102217.25;;;-4.33;100.00
13420;BME280;6781;58.440;15.470;2023-12-14T09:08:57;102236.88;;;-4.09;100.00
13420;BME280;6781;58.440;15.470;2023-12-14T09:11:24;102233.44;;;-4.17;100.00
13420;BME280;6781;58.440;15.470;2023-12-14T09:13:51;102240.19;;;-4.16;100.00
13420;BME280;6781;58.440;15.470;2023-12-14T09:16:19;102214.63;;;-4.43;100.00
13420;BME280;6781;58.440;15.470;2023-12-14T09:18:46;102217.13;;;-4.48;100.00
13420;BME280;6781;58.440;15.470;2023-12-14T09:21:13;102220.47;;;-4.50;100.00
13420;BME280;6781;58.440;15.470;2023-12-14T09:23:40;102229.84;;;-4.40;100.00
13420;BME280;6781;58.440;15.470;2023-12-14T09:26:07;102251.03;;;-4.31;100.00
13420;BME280;6781;58.440;15.470;2023-12-14T09:28:34;102261.22;;;-4.24;100.00
13420;BME280;6781;58.440;15.470;2023-12-14T09:31:00;102256.91;;;-4.36;100.00
13420;BME280;6781;58.440;15.470;2023-12-14T09:33:29;102255.13;;;-4.43;100.00
13420;BME280;6781;58.440;15.470;2023-12-14T09:35:55;102264.63;;;-4.22;100.00
13420;BME280;6781;58.440;15.470;2023-12-14T09:38:23;102257.78;;;-4.31;100.00
13420;BME280;6781;58.440;15.470;2023-12-14T09:40:49;102241.56;;;-4.51;100.00
13420;BME280;6781;58.440;15.470;2023-12-14T09:43:16;102235.59;;;-4.56;100.00
13420;BME280;6781;58.440;15.470;2023-12-14T09:45:43;102237.19;;;-4.66;100.00
13420;BME280;6781;58.440;15.470;2023-12-14T09:48:11;102245.75;;;-4.55;100.00
13420;BME280;6781;58.440;15.470;2023-12-14T09:50:40;102250.66;;;-4.67;100.00
13420;BME280;6781;58.440;15.470;2023-12-14T09:53:06;102263.53;;;-4.47;100.00
13420;BME280;6781;58.440;15.470;2023-12-14T09:55:33;102257.47;;;-4.63;100.00
13420;BME280;6781;58.440;15.470;2023-12-14T09:58:00;102269.44;;;-4.47;100.00
13420;BME280;6781;58.440;15.470;2023-12-14T10:00:34;102258.50;;;-4.46;100.00
13420;BME280;6781;58.440;15.470;2023-12-14T10:03:17;102269.59;;;-4.33;100.00
13420;BME280;6781;58.440;15.470;2023-12-14T10:05:45;102284.97;;;-4.13;100.00
13420;BME280;6781;58.440;15.470;2023-12-14T10:08:13;102262.94;;;-4.22;100.00
13420;BME280;6781;58.440;15.470;2023-12-14T10:10:40;102253.66;;;-4.20;100.00
13420;BME280;6781;58.440;15.470;2023-12-14T10:13:07;102223.16;;;-4.35;100.00
13420;BME280;6781;58.440;15.470;2023-12-14T10:15:40;102240.13;;;-4.25;100.00
13420;BME280;6781;58.440;15.470;2023-12-14T10:18:06;102185.75;;;-4.64;100.00
13420;BME280;6781;58.440;15.470;2023-12-14T10:20:33;102194.28;;;-4.55;100.00
13420;BME280;6781;58.440;15.470;2023-12-14T10:23:03;102177.22;;;-4.76;100.00
13420;BME280;6781;58.440;15.470;2023-12-14T10:25:30;102168.59;;;-4.95;100.00
13420;BME280;6781;58.440;15.470;2023-12-14T10:27:57;102192.41;;;-4.75;100.00
13420;BME280;6781;58.440;15.470;2023-12-14T10:30:25;102173.69;;;-4.92;100.00
13420;BME280;6781;58.440;15.470;2023-12-14T10:32:53;102171.94;;;-4.96;100.00
13420;BME280;6781;58.440;15.470;2023-12-14T10:35:19;102180.47;;;-4.88;100.00
13420;BME280;6781;58.440;15.470;2023-12-14T10:37:48;102194.13;;;-4.71;100.00
13420;BME280;6781;58.440;15.470;2023-12-14T10:40:17;102204.38;;;-4.57;100.00
13420;BME280;6781;58.440;15.470;2023-12-14T10:42:44;102165.31;;;-4.85;100.00
13420;BME280;6781;58.440;15.470;2023-12-14T10:45:12;102184.88;;;-4.69;100.00
13420;BME280;6781;58.440;15.470;2023-12-14T10:47:42;102173.91;;;-4.68;100.00
13420;BME280;6781;58.440;15.470;2023-12-14T10:50:09;102151.03;;;-4.78;100.00
13420;BME280;6781;58.440;15.470;2023-12-14T10:52:36;102149.41;;;-4.75;100.00
13420;BME280;6781;58.440;15.470;2023-12-14T10:55:06;102140.06;;;-4.82;100.00
13420;BME280;6781;58.440;15.470;2023-12-14T10:57:35;102116.28;;;-4.99;100.00
13420;BME280;6781;58.440;15.470;2023-12-14T11:00:03;102144.38;;;-4.72;100.00
13420;BME280;6781;58.440;15.470;2023-12-14T11:02:37;102155.38;;;-4.67;100.00
13420;BME280;6781;58.440;15.470;2023-12-14T11:05:04;102136.00;;;-4.63;100.00
13420;BME280;6781;58.440;15.470;2023-12-14T11:07:47;102153.03;;;-4.44;100.00
13420;BME280;6781;58.440;15.470;2023-12-14T11:10:14;102096.09;;;-4.93;100.00
13420;BME280;6781;58.440;15.470;2023-12-14T11:12:59;102096.22;;;-4.81;100.00
13420;BME280;6781;58.440;15.470;2023-12-14T11:15:27;102094.63;;;-4.70;100.00
13420;BME280;6781;58.440;15.470;2023-12-14T11:20:47;102053.34;;;-4.61;100.00
13420;BME280;6781;58.440;15.470;2023-12-14T11:23:14;102013.53;;;-4.85;100.00
13420;BME280;6781;58.440;15.470;2023-12-14T11:25:42;102003.34;;;-4.97;100.00
13420;BME280;6781;58.440;15.470;2023-12-14T11:28:11;102022.91;;;-4.73;100.00
13420;BME280;6781;58.440;15.470;2023-12-14T11:30:38;102035.72;;;-4.50;100.00
13420;BME280;6781;58.440;15.470;2023-12-14T11:33:05;101982.38;;;-4.82;100.00
13420;BME280;6781;58.440;15.470;2023-12-14T11:35:31;101973.03;;;-4.91;100.00
13420;BME280;6781;58.440;15.470;2023-12-14T11:37:58;101984.09;;;-4.78;100.00
13420;BME280;6781;58.440;15.470;2023-12-14T11:40:27;101976.44;;;-4.86;100.00
13420;BME280;6781;58.440;15.470;2023-12-14T11:42:58;102000.28;;;-4.52;100.00
13420;BME280;6781;58.440;15.470;2023-12-14T11:45:27;101971.44;;;-4.77;100.00
13420;BME280;6781;58.440;15.470;2023-12-14T11:47:54;101941.75;;;-5.05;100.00
13420;BME280;6781;58.440;15.470;2023-12-14T11:50:21;101988.41;;;-4.64;100.00
13420;BME280;6781;58.440;15.470;2023-12-14T11:52:48;101979.09;;;-4.66;100.00
13420;BME280;6781;58.440;15.470;2023-12-14T11:55:15;101974.97;;;-4.53;100.00
13420;BME280;6781;58.440;15.470;2023-12-14T11:57:45;101985.13;;;-4.44;100.00
13420;BME280;6781;58.440;15.470;2023-12-14T12:00:12;101997.91;;;-4.23;100.00
13420;BME280;6781;58.440;15.470;2023-12-14T12:02:40;101957.22;;;-4.55;100.00
13420;BME280;6781;58.440;15.470;2023-12-14T12:05:07;101958.16;;;-4.42;100.00
13420;BME280;6781;58.440;15.470;2023-12-14T12:07:38;101978.50;;;-4.21;100.00
13420;BME280;6781;58.440;15.470;2023-12-14T12:10:09;101980.19;;;-4.17;100.00
13420;BME280;6781;58.440;15.470;2023-12-14T12:12:37;101959.88;;;-4.35;100.00
13420;BME280;6781;58.440;15.470;2023-12-14T12:15:04;101943.00;;;-4.30;100.00
13420;BME280;6781;58.440;15.470;2023-12-14T12:17:31;101970.97;;;-4.00;100.00
13420;BME280;6781;58.440;15.470;2023-12-14T12:20:04;101921.88;;;-4.37;100.00
13420;BME280;6781;58.440;15.470;2023-12-14T12:22:31;101905.88;;;-4.30;100.00
13420;BME280;6781;58.440;15.470;2023-12-14T12:24:58;101888.09;;;-4.49;100.00
13420;BME280;6781;58.440;15.470;2023-12-14T12:27:26;101856.81;;;-4.62;100.00
13420;BME280;6781;58.440;15.470;2023-12-14T12:29:52;101832.25;;;-4.89;100.00
13420;BME280;6781;58.440;15.470;2023-12-14T12:32:20;101820.41;;;-4.99;100.00
13420;BME280;6781;58.440;15.470;2023-12-14T12:34:47;101842.44;;;-4.72;100.00
13420;BME280;6781;58.440;15.470;2023-12-14T12:37:15;101835.69;;;-4.78;100.00
13420;BME280;6781;58.440;15.470;2023-12-14T12:39:42;101824.69;;;-4.83;100.00
13420;BME280;6781;58.440;15.470;2023-12-14T12:42:08;101828.09;;;-4.75;100.00
13420;BME280;6781;58.440;15.470;2023-12-14T12:44:35;101829.81;;;-4.68;100.00
13420;BME280;6781;58.440;15.470;2023-12-14T12:47:02;101852.69;;;-4.43;100.00